createdAt,value
2023-05-10T00:01:44.723Z,0.65
2023-05-10T00:04:11.436Z,0.57
2023-05-10T00:06:38.058Z,1.70
2023-05-10T00:09:04.867Z,0.55
2023-05-10T00:11:31.652Z,1.45
2023-05-10T00:13:58.278Z,1.48
2023-05-10T00:16:24.931Z,0.85
2023-05-10T00:18:51.601Z,0.70
2023-05-10T00:21:18.211Z,0.70
2023-05-10T00:23:47.900Z,2.50
2023-05-10T00:26:14.638Z,0.70
2023-05-10T00:28:41.185Z,2.38
2023-05-10T00:31:07.717Z,0.90
2023-05-10T00:33:34.290Z,1.73
2023-05-10T00:36:00.996Z,0.43
2023-05-10T00:38:27.622Z,0.30
2023-05-10T00:40:54.182Z,0.75
2023-05-10T00:43:20.763Z,1.15
2023-05-10T00:45:47.840Z,2.35
2023-05-10T00:48:14.596Z,3.88
2023-05-10T00:50:41.614Z,1.50
2023-05-10T00:53:08.854Z,2.90
2023-05-10T00:55:35.607Z,4.93
2023-05-10T00:58:02.595Z,0.90
2023-05-10T01:00:30.630Z,4.03
2023-05-10T01:02:57.446Z,0.43
2023-05-10T01:05:24.223Z,2.72
2023-05-10T01:07:50.874Z,0.88
2023-05-10T01:10:17.885Z,0.38
2023-05-10T01:12:46.619Z,4.32
2023-05-10T01:15:13.875Z,0.35
2023-05-10T01:17:41.777Z,0.28
2023-05-10T01:20:09.344Z,1.65
2023-05-10T01:22:54.002Z,0.60
2023-05-10T01:25:35.485Z,0.60
2023-05-10T01:31:05.576Z,0.10
2023-05-10T01:33:48.715Z,0.43
2023-05-10T01:36:32.453Z,1.25
2023-05-10T01:39:11.737Z,0.30
2023-05-10T01:41:45.958Z,3.72
2023-05-10T01:44:19.810Z,1.15
2023-05-10T01:46:51.008Z,1.88
2023-05-10T01:49:28.765Z,0.85
2023-05-10T01:52:03.148Z,1.13
2023-05-10T01:54:30.355Z,2.15
2023-05-10T01:57:00.527Z,3.60
2023-05-10T01:59:31.240Z,2.70
2023-05-10T02:02:00.073Z,2.50
2023-05-10T02:04:27.964Z,3.90
2023-05-10T02:06:55.350Z,1.27
2023-05-10T02:09:22.397Z,1.77
2023-05-10T02:11:49.776Z,1.65
2023-05-10T02:14:16.878Z,2.15
2023-05-10T02:16:44.343Z,1.10
2023-05-10T02:19:11.377Z,1.08
2023-05-10T02:21:39.234Z,1.20
2023-05-10T02:24:06.450Z,1.45
2023-05-10T02:26:34.034Z,1.50
2023-05-10T02:29:04.342Z,2.17
2023-05-10T02:31:33.322Z,1.37
2023-05-10T02:34:01.319Z,3.25
2023-05-10T02:36:31.235Z,1.00
2023-05-10T02:38:58.242Z,1.48
2023-05-10T02:41:25.791Z,2.65
2023-05-10T02:43:57.224Z,1.25
2023-05-10T02:46:24.521Z,1.35
2023-05-10T02:48:51.239Z,2.28
2023-05-10T02:51:20.068Z,1.90
2023-05-10T02:53:47.816Z,2.17
2023-05-10T02:56:36.121Z,3.53
2023-05-10T02:59:02.859Z,2.85
2023-05-10T03:01:30.502Z,3.28
2023-05-10T03:03:57.335Z,0.88
2023-05-10T03:06:23.973Z,1.65
2023-05-10T03:08:50.592Z,1.67
2023-05-10T03:11:29.986Z,0.82
2023-05-10T03:14:18.482Z,1.35
2023-05-10T03:16:53.869Z,7.13
2023-05-10T03:19:55.673Z,1.95
2023-05-10T03:22:39.368Z,2.28
2023-05-10T03:25:07.984Z,1.83
2023-05-10T03:27:35.716Z,5.63
2023-05-10T03:30:03.627Z,2.55
2023-05-10T03:32:31.324Z,5.85
2023-05-10T03:34:57.958Z,2.13
2023-05-10T03:44:58.194Z,3.30
2023-05-10T03:47:24.851Z,3.28
2023-05-10T03:49:51.591Z,14.90
2023-05-10T03:52:18.183Z,3.58
2023-05-10T03:54:44.850Z,6.30
2023-05-10T03:57:11.518Z,5.03
2023-05-10T03:59:38.184Z,4.72
2023-05-10T04:02:04.834Z,5.45
2023-05-10T04:04:31.722Z,6.03
2023-05-10T04:06:58.454Z,5.25
2023-05-10T04:09:25.151Z,4.72
2023-05-10T04:11:52.219Z,6.85
2023-05-10T04:14:18.814Z,7.85
2023-05-10T04:16:45.867Z,10.05
2023-05-10T04:19:12.757Z,6.60
2023-05-10T04:21:39.309Z,9.73
2023-05-10T04:24:06.154Z,9.15
2023-05-10T04:26:32.763Z,10.00
2023-05-10T04:28:59.340Z,9.20
2023-05-10T04:31:26.021Z,11.27
2023-05-10T04:33:52.656Z,9.52
2023-05-10T04:36:19.317Z,13.32
2023-05-10T04:38:45.898Z,10.85
2023-05-10T04:41:12.700Z,13.32
2023-05-10T04:43:39.793Z,16.42
2023-05-10T04:46:06.909Z,9.48
2023-05-10T04:48:33.622Z,9.30
2023-05-10T04:51:00.293Z,10.18
2023-05-10T04:53:26.981Z,14.73
2023-05-10T04:55:53.632Z,12.25
2023-05-10T04:58:20.205Z,15.18
2023-05-10T05:00:46.869Z,7.63
2023-05-10T05:03:13.519Z,10.73
2023-05-10T05:05:40.169Z,8.88
2023-05-10T05:08:06.898Z,7.93
2023-05-10T05:10:33.545Z,11.48
2023-05-10T05:13:00.274Z,10.35
2023-05-10T05:15:27.091Z,11.85
2023-05-10T05:17:53.739Z,12.70
2023-05-10T05:20:20.365Z,10.90
2023-05-10T05:22:46.970Z,15.25
2023-05-10T05:25:13.850Z,11.68
2023-05-10T05:27:40.471Z,14.05
2023-05-10T05:30:07.734Z,10.18
2023-05-10T05:32:34.308Z,10.43
2023-05-10T05:35:01.041Z,13.98
2023-05-10T05:37:27.618Z,12.45
2023-05-10T05:39:55.979Z,12.73
2023-05-10T05:42:22.600Z,11.18
2023-05-10T05:44:49.289Z,20.00
2023-05-10T05:47:15.988Z,11.40
2023-05-10T05:49:42.624Z,12.02
2023-05-10T05:52:09.264Z,10.93
2023-05-10T05:54:36.009Z,10.48
2023-05-10T05:57:02.715Z,11.45
2023-05-10T05:59:29.397Z,13.30
2023-05-10T06:01:56.147Z,10.80
2023-05-10T06:04:22.937Z,12.63
2023-05-10T06:06:49.693Z,14.40
2023-05-10T06:09:16.896Z,10.20
2023-05-10T06:11:43.963Z,14.98
2023-05-10T06:14:11.610Z,16.02
2023-05-10T06:16:38.304Z,12.32
2023-05-10T06:19:05.167Z,11.48
2023-05-10T06:21:31.828Z,15.77
2023-05-10T06:23:58.489Z,16.83
2023-05-10T06:26:25.186Z,20.00
2023-05-10T06:28:51.855Z,19.95
2023-05-10T06:31:18.868Z,15.57
2023-05-10T06:33:45.774Z,18.42
2023-05-10T06:36:12.425Z,18.02
2023-05-10T06:38:39.140Z,13.60
2023-05-10T06:41:05.786Z,14.98
2023-05-10T06:43:32.706Z,15.68
2023-05-10T06:45:59.483Z,13.35
2023-05-10T06:48:26.213Z,12.48
2023-05-10T06:50:52.965Z,15.60
2023-05-10T06:53:19.668Z,12.95
2023-05-10T06:55:46.600Z,11.48
2023-05-10T06:58:29.063Z,15.60
2023-05-10T07:00:55.698Z,10.77
2023-05-10T07:03:22.334Z,13.07
2023-05-10T07:05:49.112Z,12.23
2023-05-10T07:08:15.864Z,11.55
2023-05-10T07:10:42.503Z,13.40
2023-05-10T07:13:09.223Z,11.27
2023-05-10T07:15:35.993Z,11.68
2023-05-10T07:18:02.788Z,10.63
2023-05-10T07:20:29.515Z,10.00
2023-05-10T07:22:56.176Z,11.55
2023-05-10T07:25:22.856Z,12.02
2023-05-10T07:27:49.721Z,13.70
2023-05-10T07:30:16.455Z,15.88
2023-05-10T07:32:43.352Z,15.10
2023-05-10T07:35:10.011Z,16.75
2023-05-10T07:37:37.064Z,16.00
2023-05-10T07:40:03.803Z,20.42
2023-05-10T07:42:30.493Z,18.67
2023-05-10T07:44:57.201Z,19.60
2023-05-10T07:47:24.537Z,18.33
2023-05-10T07:49:51.343Z,16.33
2023-05-10T07:52:18.070Z,18.95
2023-05-10T07:54:45.637Z,20.35
2023-05-10T07:57:12.300Z,26.77
2023-05-10T07:59:38.922Z,20.92
2023-05-10T08:02:05.638Z,22.05
2023-05-10T08:04:32.295Z,19.90
2023-05-10T08:06:58.882Z,20.13
2023-05-10T08:09:25.665Z,16.02
2023-05-10T08:12:01.991Z,14.38
2023-05-10T08:14:31.624Z,14.27
2023-05-10T08:16:58.256Z,14.38
2023-05-10T08:19:25.116Z,17.17
2023-05-10T08:21:52.081Z,15.93
2023-05-10T08:24:18.759Z,13.98
2023-05-10T08:26:45.409Z,9.07
2023-05-10T08:29:12.089Z,14.90
2023-05-10T08:31:38.742Z,14.45
2023-05-10T08:34:05.474Z,15.15
2023-05-10T08:36:33.163Z,11.82
2023-05-10T08:38:59.893Z,11.38
2023-05-10T08:41:29.435Z,12.27
2023-05-10T08:43:56.437Z,14.77
2023-05-10T08:46:24.513Z,11.63
2023-05-10T08:48:52.815Z,10.93
2023-05-10T08:51:22.300Z,13.55
2023-05-10T08:53:49.252Z,9.75
2023-05-10T08:56:17.014Z,11.52
2023-05-10T08:58:44.043Z,10.32
2023-05-10T09:01:11.109Z,15.32
2023-05-10T09:03:40.346Z,14.00
2023-05-10T09:06:08.130Z,12.43
2023-05-10T09:08:34.953Z,10.77
2023-05-10T09:11:02.586Z,11.50
2023-05-10T09:13:29.941Z,9.90
2023-05-10T09:15:58.786Z,12.65
2023-05-10T09:18:28.892Z,9.00
2023-05-10T09:20:55.917Z,13.48
2023-05-10T09:23:22.673Z,9.63
2023-05-10T09:25:49.752Z,7.80
2023-05-10T09:28:16.616Z,10.45
2023-05-10T09:30:44.057Z,12.05
2023-05-10T09:33:11.161Z,9.90
2023-05-10T09:35:40.667Z,7.90
2023-05-10T09:38:07.738Z,7.88
2023-05-10T09:40:34.753Z,12.57
2023-05-10T09:43:10.192Z,9.80
2023-05-10T09:45:38.843Z,9.27
2023-05-10T09:48:06.918Z,9.50
2023-05-10T09:50:35.506Z,11.30
2023-05-10T09:53:06.951Z,8.13
2023-05-10T09:55:49.319Z,10.70
2023-05-10T09:58:17.106Z,8.68
2023-05-10T10:00:46.131Z,7.35
2023-05-10T10:03:26.541Z,12.80
2023-05-10T10:05:57.425Z,8.52
2023-05-10T10:08:25.716Z,6.10
2023-05-10T10:10:53.161Z,4.47
2023-05-10T10:13:28.050Z,5.97
2023-05-10T10:15:59.941Z,4.18
2023-05-10T10:18:28.541Z,5.35
2023-05-10T10:20:59.019Z,8.35
2023-05-10T10:23:28.932Z,7.80
2023-05-10T10:26:00.782Z,6.63
2023-05-10T10:28:53.044Z,4.85
2023-05-10T10:31:29.210Z,3.58
2023-05-10T10:34:08.286Z,5.05
2023-05-10T10:36:50.013Z,4.55
2023-05-10T10:39:17.309Z,4.55
2023-05-10T10:41:55.626Z,5.40
2023-05-10T10:44:31.970Z,3.83
2023-05-10T10:47:10.373Z,3.67
2023-05-10T10:49:45.034Z,4.97
2023-05-10T10:52:31.195Z,6.05
2023-05-10T10:55:26.150Z,4.43
2023-05-10T10:58:01.989Z,4.75
2023-05-10T11:00:29.908Z,6.50
2023-05-10T11:03:24.575Z,7.38
2023-05-10T11:05:54.127Z,11.95
2023-05-10T11:08:28.922Z,6.25
2023-05-10T11:11:29.191Z,5.07
2023-05-10T11:14:07.949Z,4.30
2023-05-10T11:16:44.937Z,7.82
2023-05-10T11:19:13.287Z,5.30
2023-05-10T11:21:52.982Z,3.55
2023-05-10T11:24:21.505Z,1.88
2023-05-10T11:26:51.264Z,2.08
2023-05-10T11:29:18.044Z,1.33
2023-05-10T11:31:46.455Z,3.17
2023-05-10T11:34:17.768Z,2.55
2023-05-10T11:36:44.453Z,2.28
2023-05-10T11:39:12.556Z,5.13
2023-05-10T11:41:42.333Z,6.85
2023-05-10T11:44:10.293Z,8.10
2023-05-10T11:46:37.896Z,12.07
2023-05-10T11:49:08.022Z,9.93
2023-05-10T11:51:36.897Z,10.70
2023-05-10T11:54:07.658Z,10.60
2023-05-10T11:56:34.482Z,10.75
2023-05-10T11:59:02.938Z,10.07
2023-05-10T12:01:29.842Z,13.52
2023-05-10T12:04:01.549Z,12.63
2023-05-10T12:06:30.482Z,13.90
2023-05-10T12:08:57.187Z,15.60
2023-05-10T12:11:28.398Z,16.63
2023-05-10T12:13:55.813Z,15.57
2023-05-10T12:16:28.011Z,14.32
2023-05-10T12:18:58.888Z,19.30
2023-05-10T12:21:26.308Z,18.13
2023-05-10T12:24:01.270Z,17.77
2023-05-10T12:26:29.248Z,14.30
2023-05-10T12:28:56.421Z,12.95
2023-05-10T12:31:23.145Z,11.45
2023-05-10T12:33:50.463Z,14.25
2023-05-10T12:36:17.773Z,13.02
2023-05-10T12:38:51.084Z,14.90
2023-05-10T12:41:18.970Z,12.57
2023-05-10T12:43:49.285Z,12.57
2023-05-10T12:46:18.266Z,17.90
2023-05-10T12:48:45.601Z,12.48
2023-05-10T12:51:20.738Z,12.52
2023-05-10T12:53:49.709Z,17.05
2023-05-10T12:56:16.518Z,13.75
2023-05-10T12:58:43.184Z,13.65
2023-05-10T13:01:09.953Z,17.35
2023-05-10T13:03:36.689Z,15.95
2023-05-10T13:06:03.307Z,17.15
2023-05-10T13:08:34.545Z,17.52
2023-05-10T13:11:02.154Z,15.32
2023-05-10T13:13:28.845Z,14.00
2023-05-10T13:15:55.675Z,15.15
2023-05-10T13:18:22.522Z,14.75
2023-05-10T13:20:50.671Z,13.45
2023-05-10T13:23:17.400Z,16.48
2023-05-10T13:25:44.037Z,13.30
2023-05-10T13:28:10.776Z,16.63
2023-05-10T13:30:37.526Z,11.95
2023-05-10T13:33:04.361Z,13.93
2023-05-10T13:35:31.245Z,10.32
2023-05-10T13:37:58.703Z,9.88
2023-05-10T13:40:25.368Z,11.13
2023-05-10T13:42:52.062Z,14.05
2023-05-10T13:45:18.956Z,12.05
2023-05-10T13:47:45.909Z,14.00
2023-05-10T13:50:12.604Z,12.55
2023-05-10T13:52:39.252Z,11.15
2023-05-10T13:55:06.202Z,13.18
2023-05-10T13:57:32.906Z,11.77
2023-05-10T13:59:59.578Z,12.05
2023-05-10T14:02:26.861Z,9.38
2023-05-10T14:04:53.603Z,12.65
2023-05-10T14:07:20.311Z,14.27
2023-05-10T14:09:47.073Z,13.90
2023-05-10T14:12:15.587Z,14.93
2023-05-10T14:14:42.454Z,13.55
2023-05-10T14:17:11.434Z,14.30
2023-05-10T14:19:40.085Z,10.45
2023-05-10T14:22:07.123Z,14.57
2023-05-10T14:24:33.717Z,12.13
2023-05-10T14:27:00.441Z,13.48
2023-05-10T14:29:27.170Z,12.10
2023-05-10T14:31:53.867Z,14.15
2023-05-10T14:34:20.968Z,11.68
2023-05-10T14:36:47.593Z,13.40
2023-05-10T14:39:14.409Z,12.88
2023-05-10T14:41:43.988Z,12.00
2023-05-10T14:44:11.537Z,11.10
2023-05-10T14:46:38.373Z,12.63
2023-05-10T14:49:05.287Z,10.43
2023-05-10T14:51:32.915Z,13.80
2023-05-10T14:53:59.990Z,11.25
2023-05-10T14:56:27.174Z,9.70
2023-05-10T14:58:53.859Z,9.82
2023-05-10T15:01:21.105Z,10.25
2023-05-10T15:03:48.453Z,10.93
2023-05-10T15:06:17.016Z,14.23
2023-05-10T15:08:43.715Z,8.77
2023-05-10T15:11:10.550Z,7.68
2023-05-10T15:13:37.124Z,7.85
2023-05-10T15:16:03.785Z,11.02
2023-05-10T15:18:30.525Z,8.57
2023-05-10T15:20:57.176Z,7.35
2023-05-10T15:23:23.968Z,7.97
2023-05-10T15:25:53.275Z,8.18
2023-05-10T15:28:19.895Z,9.73
2023-05-10T15:30:46.459Z,7.88
2023-05-10T15:33:13.053Z,9.32
2023-05-10T15:35:40.564Z,9.88
2023-05-10T15:38:07.219Z,13.35
2023-05-10T15:40:33.913Z,11.40
2023-05-10T15:43:00.534Z,7.95
2023-05-10T15:45:27.584Z,9.65
2023-05-10T15:47:54.322Z,8.38
2023-05-10T15:50:20.941Z,7.28
2023-05-10T15:52:47.591Z,10.73
2023-05-10T15:55:14.610Z,9.68
2023-05-10T15:57:42.530Z,16.05
2023-05-10T16:00:11.735Z,9.50
2023-05-10T16:02:39.156Z,12.20
2023-05-10T16:05:06.229Z,11.30
2023-05-10T16:07:32.823Z,12.88
2023-05-10T16:09:59.464Z,14.32
2023-05-10T16:12:26.314Z,13.88
2023-05-10T16:14:53.052Z,15.77
2023-05-10T16:17:20.453Z,11.95
2023-05-10T16:19:47.607Z,13.98
2023-05-10T16:22:15.043Z,15.57
2023-05-10T16:24:42.465Z,18.02
2023-05-10T16:27:09.148Z,16.65
2023-05-10T16:29:35.888Z,14.30
2023-05-10T16:32:02.572Z,16.75
2023-05-10T16:34:29.148Z,11.15
2023-05-10T16:36:55.785Z,12.32
2023-05-10T16:39:22.363Z,19.45
2023-05-10T16:41:49.013Z,12.98
2023-05-10T16:44:15.655Z,11.18
2023-05-10T16:46:42.439Z,12.48
2023-05-10T16:49:09.284Z,13.20
2023-05-10T16:51:35.982Z,13.98
2023-05-10T16:54:02.637Z,15.10
2023-05-10T16:56:29.495Z,15.77
2023-05-10T16:58:56.177Z,13.50
2023-05-10T17:01:24.951Z,18.10
2023-05-10T17:03:53.128Z,17.90
2023-05-10T17:06:19.880Z,18.17
2023-05-10T17:08:46.919Z,13.10
2023-05-10T17:11:13.914Z,11.85
2023-05-10T17:13:40.620Z,16.88
2023-05-10T17:16:08.396Z,13.57
2023-05-10T17:18:35.216Z,17.58
2023-05-10T17:21:01.906Z,15.43
2023-05-10T17:23:28.669Z,16.08
2023-05-10T17:25:55.447Z,17.73
2023-05-10T17:28:22.137Z,16.27
2023-05-10T17:30:56.212Z,17.20
2023-05-10T17:33:22.820Z,11.95
2023-05-10T17:35:49.752Z,13.85
2023-05-10T17:38:16.411Z,13.20
2023-05-10T17:40:43.130Z,14.80
2023-05-10T17:43:09.754Z,13.05
2023-05-10T17:45:36.489Z,14.57
2023-05-10T17:48:04.242Z,14.23
2023-05-10T17:50:32.734Z,10.73
2023-05-10T17:52:59.369Z,10.57
2023-05-10T17:55:27.165Z,11.63
2023-05-10T17:57:53.953Z,13.38
2023-05-10T18:00:20.818Z,14.43
2023-05-10T18:02:47.464Z,12.75
2023-05-10T18:05:14.429Z,14.18
2023-05-10T18:07:41.156Z,10.20
2023-05-10T18:10:08.196Z,12.25
2023-05-10T18:12:34.957Z,12.82
2023-05-10T18:15:01.645Z,10.18
2023-05-10T18:17:28.328Z,14.80
2023-05-10T18:19:55.201Z,13.70
2023-05-10T18:22:21.816Z,14.73
2023-05-10T18:24:48.429Z,12.27
2023-05-10T18:27:15.046Z,14.57
2023-05-10T18:29:42.389Z,13.32
2023-05-10T18:32:09.046Z,10.05
2023-05-10T18:34:35.923Z,11.13
2023-05-10T18:37:07.557Z,9.75
2023-05-10T18:39:34.670Z,11.73
2023-05-10T18:42:01.463Z,7.10
2023-05-10T18:44:29.088Z,8.85
2023-05-10T18:46:55.964Z,8.75
2023-05-10T18:49:22.860Z,8.10
2023-05-10T18:51:49.458Z,8.10
2023-05-10T18:54:16.273Z,9.40
2023-05-10T18:56:45.266Z,9.23
2023-05-10T18:59:12.527Z,7.82
2023-05-10T19:01:40.888Z,11.20
2023-05-10T19:04:08.916Z,9.73
2023-05-10T19:06:36.193Z,9.05
2023-05-10T19:09:03.219Z,11.32
2023-05-10T19:11:32.320Z,10.82
2023-05-10T19:13:59.066Z,13.45
2023-05-10T19:16:28.795Z,17.48
2023-05-10T19:18:56.957Z,11.80
2023-05-10T19:21:23.736Z,14.20
2023-05-10T19:23:50.424Z,12.65
2023-05-10T19:26:17.223Z,12.48
2023-05-10T19:28:44.154Z,14.75
2023-05-10T19:31:10.979Z,15.38
2023-05-10T19:33:37.740Z,11.98
2023-05-10T19:36:04.433Z,10.63
2023-05-10T19:38:31.159Z,14.25
2023-05-10T19:40:58.694Z,10.43
2023-05-10T19:43:32.138Z,11.77
2023-05-10T19:46:01.169Z,11.82
2023-05-10T19:48:28.154Z,12.75
2023-05-10T19:51:00.048Z,9.73
2023-05-10T19:53:27.173Z,10.85
2023-05-10T19:55:54.462Z,9.13
2023-05-10T19:58:21.140Z,12.00
2023-05-10T20:00:47.870Z,9.88
2023-05-10T20:03:15.445Z,9.68
2023-05-10T20:05:42.049Z,12.98
2023-05-10T20:08:08.762Z,11.27
2023-05-10T20:10:35.364Z,12.35
2023-05-10T20:13:02.045Z,12.15
2023-05-10T20:15:30.026Z,11.38
2023-05-10T20:17:56.724Z,12.45
2023-05-10T20:20:23.737Z,8.38
2023-05-10T20:22:50.810Z,11.38
2023-05-10T20:25:18.367Z,11.32
2023-05-10T20:27:45.521Z,10.43
2023-05-10T20:30:12.565Z,10.65
2023-05-10T20:32:39.376Z,11.20
2023-05-10T20:35:07.256Z,11.13
2023-05-10T20:37:34.020Z,12.27
2023-05-10T20:40:00.822Z,11.32
2023-05-10T20:42:27.431Z,12.93
2023-05-10T20:44:54.157Z,13.63
2023-05-10T20:47:21.993Z,12.13
2023-05-10T20:49:48.671Z,10.45
2023-05-10T20:52:15.525Z,13.30
2023-05-10T20:54:42.194Z,10.15
2023-05-10T20:57:09.149Z,12.52
2023-05-10T20:59:35.819Z,10.93
2023-05-10T21:02:02.521Z,11.95
2023-05-10T21:04:29.359Z,11.63
2023-05-10T21:06:57.036Z,10.25
2023-05-10T21:09:23.728Z,13.23
2023-05-10T21:11:50.867Z,14.57
2023-05-10T21:14:17.680Z,14.90
2023-05-10T21:16:44.394Z,15.80
2023-05-10T21:19:11.829Z,10.65
2023-05-10T21:21:38.543Z,16.30
2023-05-10T21:24:05.481Z,14.57
2023-05-10T21:26:32.276Z,14.50
2023-05-10T21:28:59.433Z,13.93
2023-05-10T21:31:26.120Z,11.90
2023-05-10T21:33:52.818Z,13.40
2023-05-10T21:36:19.595Z,14.32
2023-05-10T21:38:46.854Z,15.50
2023-05-10T21:41:13.555Z,12.63
2023-05-10T21:43:40.422Z,13.35
2023-05-10T21:46:07.480Z,12.80
2023-05-10T21:48:34.136Z,14.60
2023-05-10T21:51:01.770Z,15.52
2023-05-10T21:53:29.044Z,14.35
2023-05-10T21:55:56.324Z,15.05
2023-05-10T21:58:23.394Z,12.88
2023-05-10T22:00:50.075Z,12.00
2023-05-10T22:03:18.074Z,18.45
2023-05-10T22:05:44.990Z,15.10
2023-05-10T22:08:11.658Z,17.27
2023-05-10T22:10:38.369Z,13.50
2023-05-10T22:13:05.061Z,15.05
2023-05-10T22:15:34.148Z,18.98
2023-05-10T22:18:02.490Z,14.50
2023-05-10T22:20:29.263Z,17.17
2023-05-10T22:22:56.163Z,16.38
2023-05-10T22:25:22.944Z,15.98
2023-05-10T22:27:49.600Z,17.55
2023-05-10T22:30:17.043Z,18.17
2023-05-10T22:32:44.144Z,16.15
2023-05-10T22:35:10.836Z,20.90
2023-05-10T22:37:37.649Z,12.05
2023-05-10T22:40:04.759Z,19.42
2023-05-10T22:42:31.445Z,15.02
2023-05-10T22:44:58.913Z,18.17
2023-05-10T22:47:25.800Z,16.85
2023-05-10T22:49:52.559Z,19.27
2023-05-10T22:52:19.209Z,16.60
2023-05-10T22:54:45.861Z,18.45
2023-05-10T22:57:12.695Z,12.95
2023-05-10T22:59:39.457Z,16.75
2023-05-10T23:02:06.185Z,12.40
2023-05-10T23:04:32.983Z,13.27
2023-05-10T23:06:59.660Z,14.05
2023-05-10T23:09:26.314Z,15.70
2023-05-10T23:11:52.902Z,19.20
2023-05-10T23:14:19.658Z,14.90
2023-05-10T23:16:46.443Z,12.40
2023-05-10T23:19:13.346Z,13.65
2023-05-10T23:21:39.969Z,12.73
2023-05-10T23:24:08.652Z,25.85
2023-05-10T23:26:35.446Z,18.92
2023-05-10T23:29:02.486Z,21.15
2023-05-10T23:31:29.199Z,14.55
2023-05-10T23:33:56.096Z,15.20
2023-05-10T23:36:22.914Z,18.60
2023-05-10T23:38:49.513Z,13.10
2023-05-10T23:41:16.134Z,16.60
2023-05-10T23:43:42.858Z,19.05
2023-05-10T23:46:14.769Z,16.17
2023-05-10T23:48:41.577Z,17.15
2023-05-10T23:51:08.408Z,15.50
2023-05-10T23:53:35.114Z,18.38
2023-05-10T23:56:01.784Z,16.48
2023-05-10T23:58:28.486Z,15.20
